createdAt,value
2019-03-20T00:02:56.419Z,12.8
2019-03-20T00:12:55.637Z,12.6
2019-03-20T00:22:54.852Z,12.6
2019-03-20T00:32:54.070Z,12.5
2019-03-20T00:42:53.285Z,12.4
2019-03-20T00:52:52.499Z,12.4
2019-03-20T01:02:51.726Z,12.3
2019-03-20T01:12:50.968Z,12.2
2019-03-20T01:22:50.159Z,12.1
2019-03-20T01:32:49.367Z,12.1
2019-03-20T01:43:02.273Z,12
2019-03-20T01:53:01.486Z,11.9
2019-03-20T02:03:00.703Z,11.8
2019-03-20T02:12:59.921Z,11.8
2019-03-20T02:22:59.138Z,11.8
2019-03-20T02:32:58.352Z,11.6
2019-03-20T02:42:57.632Z,11.6
2019-03-20T02:52:56.950Z,11.4
2019-03-20T03:02:56.263Z,11.4
2019-03-20T03:12:55.585Z,11.3
2019-03-20T03:22:54.901Z,11.1
2019-03-20T03:32:54.224Z,11
2019-03-20T03:42:53.442Z,10.9
2019-03-20T03:52:52.655Z,10.8
2019-03-20T04:02:51.887Z,10.6
2019-03-20T04:12:51.086Z,10.6
2019-03-20T04:22:50.303Z,10.6
2019-03-20T04:32:49.537Z,10.6
2019-03-20T04:42:48.732Z,10.5
2019-03-20T04:52:47.947Z,10.4
2019-03-20T05:02:47.164Z,9.9
2019-03-20T05:12:46.378Z,9.4
2019-03-20T05:22:45.591Z,9.8
2019-03-20T05:32:44.805Z,10.3
2019-03-20T05:42:44.020Z,11.1
2019-03-20T05:52:43.236Z,11.6
2019-03-20T06:02:42.453Z,12.8
2019-03-20T06:12:41.671Z,13.1
2019-03-20T06:22:40.893Z,14.2
2019-03-20T06:32:40.105Z,15.4
2019-03-20T06:42:39.327Z,16.5
2019-03-20T06:52:38.587Z,17.9
2019-03-20T07:02:37.755Z,19.2
2019-03-20T07:12:36.974Z,19.7
2019-03-20T07:22:36.188Z,20.2
2019-03-20T07:32:35.408Z,21.6
2019-03-20T07:42:34.625Z,23.5
2019-03-20T07:52:33.841Z,25.2
2019-03-20T08:02:33.053Z,26.4
2019-03-20T08:12:33.277Z,26.9
2019-03-20T08:22:32.436Z,27.3
2019-03-20T08:32:31.661Z,26.9
2019-03-20T08:52:30.090Z,26.7
2019-03-20T09:02:29.319Z,27.4
2019-03-20T09:12:34.793Z,27.5
2019-03-20T09:22:27.738Z,27.9
2019-03-20T09:32:26.954Z,27.3
2019-03-20T09:42:26.174Z,27.6
2019-03-20T09:52:25.387Z,27.9
2019-03-20T10:02:24.609Z,27.6
2019-03-20T10:12:23.834Z,24.1
2019-03-20T10:22:23.042Z,24
2019-03-20T10:32:22.253Z,24.6
2019-03-20T10:42:21.470Z,25.6
2019-03-20T10:52:20.686Z,24.3
2019-03-20T11:02:19.910Z,23.6
2019-03-20T11:12:19.121Z,22.9
2019-03-20T11:22:19.164Z,22.6
2019-03-20T11:32:17.555Z,20.9
2019-03-20T11:42:16.768Z,20.8
2019-03-20T11:52:15.984Z,21.3
2019-03-20T12:02:15.265Z,20.4
2019-03-20T12:12:14.415Z,19
2019-03-20T12:22:13.639Z,18.8
2019-03-20T12:32:12.848Z,18.4
2019-03-20T12:42:12.060Z,18
2019-03-20T12:52:11.276Z,18.5
2019-03-20T13:02:10.491Z,18.8
2019-03-20T13:12:09.715Z,18.4
2019-03-20T13:22:08.920Z,17.8
2019-03-20T13:32:08.136Z,17.7
2019-03-20T13:42:07.354Z,17.5
2019-03-20T13:52:06.565Z,17.1
2019-03-20T14:02:05.779Z,16.9
2019-03-20T14:12:04.996Z,16.8
2019-03-20T14:22:04.205Z,16.5
2019-03-20T14:32:03.421Z,15.9
2019-03-20T14:42:02.640Z,15.6
2019-03-20T14:52:01.846Z,15.5
2019-03-20T15:02:01.060Z,15.1
2019-03-20T15:12:00.274Z,14.9
2019-03-20T15:21:59.487Z,14.7
2019-03-20T15:31:58.702Z,14.5
2019-03-20T15:41:57.920Z,14.3
2019-03-20T15:51:57.143Z,14.1
2019-03-20T16:01:56.351Z,13.8
2019-03-20T16:11:55.567Z,13.7
2019-03-20T16:21:54.783Z,13.3
2019-03-20T16:31:53.999Z,13.1
2019-03-20T16:41:53.216Z,12.9
2019-03-20T16:51:52.431Z,12.7
2019-03-20T17:01:51.648Z,12.3
2019-03-20T17:11:50.875Z,12.5
2019-03-20T17:21:50.079Z,12.9
2019-03-20T17:31:49.294Z,13.1
2019-03-20T17:41:48.511Z,13.3
2019-03-20T17:51:47.729Z,13.4
2019-03-20T18:01:46.948Z,13.5
2019-03-20T18:11:47.538Z,13.4
2019-03-20T18:21:45.376Z,13.5
2019-03-20T18:31:46.098Z,13.5
2019-03-20T18:41:43.818Z,13.6
2019-03-20T18:51:43.025Z,13.8
2019-03-20T19:01:42.242Z,13.8
2019-03-20T19:11:41.467Z,13.9
2019-03-20T19:21:40.678Z,14
2019-03-20T19:31:39.899Z,14
2019-03-20T19:41:39.119Z,14.1
2019-03-20T19:51:38.339Z,14.2
2019-03-20T20:01:37.561Z,14.2
2019-03-20T20:11:36.781Z,14.2
2019-03-20T20:20:13.780Z,14
2019-03-20T20:30:12.999Z,13.9
2019-03-20T20:40:12.217Z,13.9
2019-03-20T20:50:11.435Z,14
2019-03-20T21:05:03.097Z,14
2019-03-20T21:15:02.315Z,13.9
2019-03-20T21:25:01.533Z,13.8
2019-03-20T21:35:00.749Z,13.7
2019-03-20T21:44:59.969Z,13.6
2019-03-20T21:54:59.184Z,13.5
2019-03-20T22:04:58.461Z,13.5
2019-03-20T22:14:57.780Z,13.5
2019-03-20T22:24:57.100Z,13.4
2019-03-20T22:39:58.414Z,13.4
2019-03-20T22:49:57.630Z,13.3
2019-03-20T22:59:56.849Z,13.3
2019-03-20T23:09:56.067Z,13.4
2019-03-20T23:19:55.279Z,13.5
2019-03-20T23:29:54.496Z,13.4
2019-03-20T23:39:53.782Z,13.5
2019-03-20T23:49:53.104Z,13.6
2019-03-20T23:59:53.864Z,13.4
